• Join FlightAware (Why Join?)
  • Login
  • US Flag 
10:53AM EST


 

Airport Tracker/Info


-or-


 

Live Flight TrackerFlight Track Log ✈ N997MX ✈ 25-Jul-2013 ✈ 2I0 - KSUS

Flight Track Log - Related Links

Times and Time Zones

All times are in EDT time to prevent confusion due to time zone crossing. See the N997MX flight status page for this flight to view local times or setup timezone preferences in your user account.

Time Position Orientation Groundspeed Altitude Reporting Facility
EDT Latitude Longitude Course Direction KTS MPH feet Rate Location/Type
05:56PM 37.4397 -87.5131 292° West 234 269 4,500  Level Indianapolis Center
05:57PM 37.4678 -87.6061 291° West 271 312 6,100 1,800 Climbing Indianapolis Center
05:59PM 37.5206 -87.7769 291° West 284 327 9,300 1,620 Climbing Kansas City Center
06:00PM 37.5508 -87.8717 292° West 287 330 10,500 1,140 Climbing Kansas City Center
06:01PM 37.3591 -87.4079 292° West  Level FlightAware Approximate
06:01PM 37.5819 -87.9694 292° West 294 338 11,700  Level Kansas City Center
06:02PM 37.3895 -87.5010 292° West  Level FlightAware Approximate
06:02PM 37.6139 -88.0697 292° West 301 346 12,800  Level Kansas City Center
06:03PM 37.6447 -88.1683 292° West 303 349 14,000 1,140 Climbing Kansas City Center
06:04PM 37.6761 -88.2681 292° West 304 350 15,200 1,080 Climbing Kansas City Center
06:05PM 37.7089 -88.3681 293° West 305 351 16,300 960 Climbing Kansas City Center
06:06PM 37.7386 -88.4653 291° West 303 349 17,300 960 Climbing Kansas City Center
06:07PM 37.7733 -88.5806 291° West 295 339 18,400 960 Climbing Kansas City Center
06:08PM 37.8022 -88.6761 291° West 292 336 19,400 900 Climbing Kansas City Center
06:09PM 37.8289 -88.7567 293° West 291 335 20,300 720 Climbing Kansas City Center
06:10PM 37.8625 -88.8672 291° West 283 326 21,000 540 Climbing Kansas City Center
06:11PM 37.8911 -88.9639 291° West 289 333 21,500 480 Climbing Kansas City Center
06:12PM 37.9219 -89.0700 290° West 299 344 22,000 240 Climbing Kansas City Center
06:13PM 37.9544 -89.1806 290° West 311 358 22,000 -300 Level Kansas City Center
06:14PM 37.9872 -89.2875 291° West 323 372 21,400 -1,680 Descending Kansas City Center
06:15PM 38.0275 -89.4186 291° West 368 423 18,600 -2,580 Descending Kansas City Center
06:16PM 38.0633 -89.5364 291° West 361 415 16,100 -2,460 Descending Kansas City Center
06:17PM 38.0992 -89.6528 291° West 355 409 13,600 -1,980 Descending Kansas City Center
06:18PM 38.1317 -89.7683 290° West 355 409 12,100 -780 Descending Kansas City Center
06:20PM 38.1817 -89.8625 304° West 331 381 12,000 -360 Descending Kansas City Center
06:21PM 38.2331 -89.9564 305° West 324 373 11,400 -960 Descending Kansas City Center
06:22PM 38.2775 -90.0539 300° West 321 369 10,100 -1,440 Descending Kansas City Center
06:23PM 38.3256 -90.1597 300° West 294 338 8,500 -1,440 Descending Kansas City Center
06:24PM 38.3644 -90.2450 300° West 283 326 7,200 -1,260 Descending Kansas City Center
06:25PM 38.4036 -90.3300 300° West 278 320 5,900 -1,200 Descending Kansas City Center
06:26PM 38.4414 -90.4156 299° West 277 319 4,800 -900 Descending Kansas City Center
06:27PM 38.4803 -90.4981 301° West 273 314 4,100 -720 Descending Kansas City Center
06:28PM 38.5261 -90.5725 308° West 268 308 3,400 -840 Descending Kansas City Center
06:29PM 38.5769 -90.6333 317° Northwest 260 299 2,400 -600 Descending Kansas City Center
06:30PM 38.5989 -90.6939 295° West 209 241 2,200 -540 Descending Kansas City Center
06:31PM 38.6442 -90.7058 348° North 160 184 1,300 -780 Descending Kansas City Center
06:32PM 38.6575 -90.6614 69° East 143 165 600 -720 Descending Kansas City Center